Time;durP1;ratioP1;P1;durP2;ratioP2;P2;SDS_P1;SDS_P2;PMS_P1;PMS_P2;Temp;Humidity;BMP_temperature;BMP_pressure;BME280_temperature;BME280_humidity;BME280_pressure;Samples;Min_cycle;Max_cycle;Signal;HPM_P1;HPM_P2
2022/12/01 00:01:23;;;;;;;;;;;6.50;66.80;;;1.43;91.66;95789.16;5016840;28;20250;-55
2022/12/01 00:03:53;;;;;;;;;;;6.50;66.70;;;1.44;91.89;95786.31;5033258;28;20265;-55
2022/12/01 00:06:22;;;;;;;;;;;6.50;66.80;;;1.44;92.17;95781.06;5004300;28;19908;-55
2022/12/01 00:11:45;;;;;;;;;;;6.50;66.70;;;1.46;91.83;95778.25;4998637;28;19955;-49
2022/12/01 00:14:15;;;;;;;;;;;6.50;66.70;;;1.49;91.75;95776.03;5014785;28;19916;-53
2022/12/01 00:16:43;;;;;;;;;;;6.50;66.70;;;1.52;92.84;95775.63;5031412;28;20299;-53
2022/12/01 00:19:18;;;;;;;;;;;6.50;66.70;;;1.51;92.79;95771.38;4992332;28;20364;-51
2022/12/01 00:21:49;;;;;;;;;;;6.50;66.70;;;1.53;92.37;95776.41;5023840;28;20057;-51
2022/12/01 00:24:15;;;;;;;;;;;6.50;66.70;;;1.51;91.75;95778.47;5031424;28;20428;-53
2022/12/01 00:26:44;;;;;;;;;;;6.50;66.70;;;1.49;91.25;95769.97;5013703;28;19909;-51
2022/12/01 00:29:13;;;;;;;;;;;6.50;66.70;;;1.54;92.09;95771.00;5013168;28;19909;-52
2022/12/01 00:31:42;;;;;;;;;;;6.50;66.70;;;1.51;91.65;95776.63;5031211;28;19915;-52
2022/12/01 00:34:22;;;;;;;;;;;6.50;66.70;;;1.50;91.85;95775.00;4990582;28;19916;-51
2022/12/01 00:36:48;;;;;;;;;;;6.50;66.70;;;1.56;91.72;95774.19;4993105;28;19917;-51
2022/12/01 00:39:17;;;;;;;;;;;6.50;66.70;;;1.56;91.49;95779.44;5009889;28;19917;-50
2022/12/01 00:41:46;;;;;;;;;;;6.50;66.60;;;1.57;91.51;95767.16;5012071;28;19919;-54
2022/12/01 00:44:14;;;;;;;;;;;6.50;66.60;;;1.57;91.57;95773.19;5021355;28;19909;-51
2022/12/01 00:46:40;;;;;;;;;;;6.50;66.60;;;1.54;91.20;95771.00;5014599;28;19909;-52
2022/12/01 00:49:08;;;;;;;;;;;6.50;66.50;;;1.57;91.45;95770.56;5013907;28;20375;-48
2022/12/01 00:51:34;;;;;;;;;;;6.60;66.50;;;1.55;91.36;95775.22;5017976;28;19959;-54
2022/12/01 00:53:59;;;;;;;;;;;6.60;66.50;;;1.54;91.63;95772.81;5012115;28;20367;-52
2022/12/01 00:56:28;;;;;;;;;;;6.60;66.50;;;1.60;91.08;95775.44;4996688;28;19995;-51
2022/12/01 00:58:54;;;;;;;;;;;6.60;66.50;;;1.57;90.72;95772.41;4992360;28;20431;-52
2022/12/01 01:01:26;;;;;;;;;;;6.60;66.40;;;1.58;91.54;95779.25;5025754;28;19966;-53
2022/12/01 01:03:54;;;;;;;;;;;6.60;66.40;;;1.58;91.85;95780.06;5031023;28;19908;-50
2022/12/01 01:06:23;;;;;;;;;;;6.60;66.40;;;1.58;91.39;95779.25;5028777;28;19913;-51
2022/12/01 01:08:49;;;;;;;;;;;6.60;66.40;;;1.59;92.24;95778.25;5031517;28;20379;-50
2022/12/01 01:11:18;;;;;;;;;;;6.60;66.40;;;1.60;91.62;95778.06;5029240;28;19948;-50
2022/12/01 01:13:47;;;;;;;;;;;6.60;66.40;;;1.57;91.77;95786.34;5013945;28;19924;-53
2022/12/01 01:16:20;;;;;;;;;;;6.60;66.40;;;1.54;91.92;95776.22;5030897;28;20007;-53
2022/12/01 01:18:47;;;;;;;;;;;6.60;66.40;;;1.58;91.97;95780.06;4992654;28;19908;-52
2022/12/01 01:21:18;;;;;;;;;;;6.60;66.40;;;1.56;91.67;95782.06;5028690;28;19917;-51
2022/12/01 01:23:48;;;;;;;;;;;6.60;66.40;;;1.58;91.98;95787.94;4990130;28;19955;-51
2022/12/01 01:26:22;;;;;;;;;;;6.60;66.30;;;1.55;92.14;95795.41;5027744;28;20325;-53
2022/12/01 01:28:49;;;;;;;;;;;6.60;66.40;;;1.55;91.86;95793.59;5009096;28;19932;-50
2022/12/01 01:31:20;;;;;;;;;;;6.60;66.40;;;1.56;92.00;95784.69;5023670;28;19919;-49
2022/12/01 01:33:47;;;;;;;;;;;6.60;66.40;;;1.57;91.89;95788.97;4997112;28;19909;-48
2022/12/01 01:36:18;;;;;;;;;;;6.60;66.40;;;1.55;92.53;95792.78;4999638;28;19917;-50
2022/12/01 01:38:51;;;;;;;;;;;6.60;66.30;;;1.58;91.84;95797.63;5013210;28;19908;-49
2022/12/01 01:41:26;;;;;;;;;;;6.60;66.30;;;1.60;92.00;95791.19;5007632;28;19943;-54
2022/12/01 01:44:04;;;;;;;;;;;6.60;66.40;;;1.60;92.49;95791.19;5009045;28;19932;-53
2022/12/01 01:46:35;;;;;;;;;;;6.60;66.30;;;1.61;91.67;95786.72;5005261;28;19909;-49
2022/12/01 01:49:13;;;;;;;;;;;6.60;66.30;;;1.60;92.09;95793.81;5008585;28;19909;-53
2022/12/01 01:51:49;;;;;;;;;;;6.60;66.30;;;1.60;92.02;95785.13;5015665;28;20016;-50
2022/12/01 01:54:39;;;;;;;;;;;6.60;66.30;;;1.62;92.36;95783.09;4976029;28;19913;-52
2022/12/01 01:57:10;;;;;;;;;;;6.60;66.30;;;1.64;92.00;95783.69;5030191;28;19917;-50
2022/12/01 01:59:46;;;;;;;;;;;6.60;66.30;;;1.60;92.43;95785.94;4992498;28;19913;-49
2022/12/01 02:02:13;;;;;;;;;;;6.60;66.30;;;1.61;91.97;95781.47;4995098;28;20344;-49
2022/12/01 02:04:50;;;;;;;;;;;6.60;66.30;;;1.60;92.13;95779.88;4986056;28;19959;-49
2022/12/01 02:07:22;;;;;;;;;;;6.60;66.30;;;1.63;92.40;95784.72;5004998;28;19910;-48
2022/12/01 02:09:52;;;;;;;;;;;6.60;66.20;;;1.61;92.59;95781.47;5023882;28;20012;-49
2022/12/01 02:12:58;;;;;;;;;;;6.60;66.30;;;1.64;92.90;95781.06;5008355;28;20478;-50
2022/12/01 02:16:02;;;;;;;;;;;6.60;66.30;;;1.62;93.04;95780.47;5010821;28;20015;-52
2022/12/01 02:19:05;;;;;;;;;;;6.60;66.30;;;1.64;93.02;95782.91;5026131;28;19955;-52
2022/12/01 02:21:35;;;;;;;;;;;6.60;66.30;;;1.63;93.31;95774.22;5008967;28;20376;-50
2022/12/01 02:24:53;;;;;;;;;;;6.60;66.40;;;1.62;93.23;95770.75;5007140;28;20389;-52
2022/12/01 02:27:41;;;;;;;;;;;6.60;66.40;;;1.62;92.84;95769.94;5028569;28;19909;-50
2022/12/01 02:30:41;;;;;;;;;;;6.60;66.40;;;1.62;93.38;95769.94;4999024;28;19920;-49
2022/12/01 02:33:31;;;;;;;;;;;6.60;66.40;;;1.62;93.65;95772.59;5000144;28;19913;-48
2022/12/01 02:36:30;;;;;;;;;;;6.60;66.40;;;1.66;93.47;95776.44;4992012;28;19910;-48
2022/12/01 02:39:36;;;;;;;;;;;6.60;66.40;;;1.67;94.00;95769.38;5004929;28;19916;-51
2022/12/01 02:42:48;;;;;;;;;;;6.60;66.40;;;1.66;93.42;95773.81;4991089;28;19912;-51
2022/12/01 02:45:38;;;;;;;;;;;6.60;66.40;;;1.67;93.17;95764.09;4999081;28;19916;-53
2022/12/01 02:48:15;;;;;;;;;;;6.60;66.40;;;1.64;93.13;95767.94;5013075;28;19916;-52
2022/12/01 02:51:00;;;;;;;;;;;6.60;66.40;;;1.68;93.42;95768.34;5013185;28;19909;-51
2022/12/01 02:53:26;;;;;;;;;;;6.60;66.40;;;1.67;93.40;95764.09;5007889;28;19912;-51
2022/12/01 02:55:55;;;;;;;;;;;6.60;66.30;;;1.67;93.48;95769.38;5012075;28;19909;-53
2022/12/01 02:58:26;;;;;;;;;;;6.60;66.30;;;1.64;93.45;95765.31;5000515;28;19973;-51
2022/12/01 03:01:36;;;;;;;;;;;6.60;66.30;;;1.66;93.68;95771.19;5022083;28;19916;-51
2022/12/01 03:04:55;;;;;;;;;;;6.60;66.30;;;1.69;93.82;95772.56;5027483;28;20003;-51
2022/12/01 03:07:55;;;;;;;;;;;6.60;66.30;;;1.70;93.66;95767.13;5011655;28;20007;-49
2022/12/01 03:11:00;;;;;;;;;;;6.60;66.40;;;1.71;93.67;95766.09;5011094;28;19913;-50
2022/12/01 03:13:56;;;;;;;;;;;6.60;66.40;;;1.72;93.54;95762.47;5012057;28;20015;-49
2022/12/01 03:16:45;;;;;;;;;;;6.60;66.40;;;1.71;93.37;95766.09;5012806;28;19939;-53
2022/12/01 03:19:35;;;;;;;;;;;6.60;66.40;;;1.70;93.06;95769.75;4999243;28;20415;-50
2022/12/01 03:22:14;;;;;;;;;;;6.60;66.40;;;1.67;92.84;95767.53;4985499;28;19928;-49
2022/12/01 03:24:48;;;;;;;;;;;6.60;66.40;;;1.68;92.54;95763.09;5006715;28;19935;-49
2022/12/01 03:27:20;;;;;;;;;;;6.60;67.10;;;1.70;92.59;95764.50;5009700;28;20314;-49
2022/12/01 03:29:52;;;;;;;;;;;6.60;66.30;;;1.69;92.28;95768.13;4991297;28;19909;-49
2022/12/01 03:32:27;;;;;;;;;;;6.60;66.20;;;1.69;92.55;95768.13;5009508;28;19916;-51
2022/12/01 03:35:15;;;;;;;;;;;6.60;66.20;;;1.68;92.46;95760.47;5012323;28;20470;-50
2022/12/01 03:37:55;;;;;;;;;;;6.60;66.20;;;1.67;92.44;95758.84;5008801;28;19959;-51
2022/12/01 03:40:28;;;;;;;;;;;6.70;66.30;;;1.69;92.39;95762.88;4986988;28;20341;-49
2022/12/01 03:43:06;;;;;;;;;;;6.60;66.90;;;1.68;92.48;95765.72;5004427;28;20424;-52
2022/12/01 03:45:59;;;;;;;;;;;6.60;66.10;;;1.68;92.51;95766.50;5024095;28;19958;-50
2022/12/01 03:48:26;;;;;;;;;;;6.60;66.90;;;1.65;92.72;95760.88;5008384;28;20402;-49
2022/12/01 03:51:32;;;;;;;;;;;6.60;66.20;;;1.62;92.35;95760.25;4992404;28;19909;-52
2022/12/01 03:54:12;;;;;;;;;;;6.60;66.20;;;1.61;92.63;95763.91;5014494;28;19917;-52
2022/12/01 03:57:01;;;;;;;;;;;6.60;66.20;;;1.60;92.56;95764.91;5011314;28;20425;-52
2022/12/01 03:59:34;;;;;;;;;;;6.60;66.20;;;1.57;92.78;95770.56;4981265;28;19920;-51
2022/12/01 04:02:01;;;;;;;;;;;6.60;66.30;;;1.54;92.37;95771.00;4986417;28;20291;-52
2022/12/01 04:04:33;;;;;;;;;;;6.60;66.20;;;1.54;92.20;95765.72;4996901;28;20417;-49
2022/12/01 04:06:59;;;;;;;;;;;6.50;66.20;;;1.56;92.47;95778.66;5017124;28;19909;-50
2022/12/01 04:09:25;;;;;;;;;;;6.60;66.20;;;1.58;92.04;95774.81;5014088;28;19919;-51
2022/12/01 04:14:41;;;;;;;;;;;6.50;66.20;;;1.57;91.66;95775.84;5019560;28;19931;-49
2022/12/01 04:17:07;;;;;;;;;;;6.50;66.20;;;1.57;92.07;95772.41;5030042;28;20003;-54
2022/12/01 04:19:33;;;;;;;;;;;6.50;67.00;;;1.58;92.05;95780.06;5029497;28;20362;-51
2022/12/01 04:21:59;;;;;;;;;;;6.60;66.20;;;1.57;91.19;95772.41;5018143;28;19918;-47
2022/12/01 04:24:24;;;;;;;;;;;6.60;66.20;;;1.58;91.58;95777.44;5008369;28;20372;-52
2022/12/01 04:26:53;;;;;;;;;;;6.60;66.10;;;1.58;91.87;95774.00;5031393;28;20398;-46
2022/12/01 04:29:19;;;;;;;;;;;6.60;66.20;;;1.59;91.30;95778.25;5029574;28;19999;-52
2022/12/01 04:31:44;;;;;;;;;;;6.60;66.10;;;1.58;91.19;95785.31;5013251;28;19986;-48
2022/12/01 04:34:10;;;;;;;;;;;6.60;66.10;;;1.56;91.39;95778.66;5013165;28;19959;-46
2022/12/01 04:36:39;;;;;;;;;;;6.60;66.10;;;1.56;91.07;95776.81;5031529;28;19920;-46
2022/12/01 04:39:04;;;;;;;;;;;6.60;66.10;;;1.57;91.25;95781.09;5002244;28;19913;-49
2022/12/01 04:41:30;;;;;;;;;;;6.60;66.10;;;1.57;91.70;95788.16;5019823;28;19909;-48
2022/12/01 04:44:02;;;;;;;;;;;6.60;66.10;;;1.55;91.72;95790.16;5031656;28;19940;-49
2022/12/01 04:46:31;;;;;;;;;;;6.50;66.00;;;1.56;91.84;95786.53;5002154;28;20375;-49
2022/12/01 04:48:59;;;;;;;;;;;6.50;66.00;;;1.56;91.42;95792.56;5034370;28;19916;-48
2022/12/01 04:51:25;;;;;;;;;;;6.60;66.10;;;1.53;92.22;95792.19;4993032;28;19916;-46
2022/12/01 04:53:51;;;;;;;;;;;6.50;66.00;;;1.53;92.10;95790.34;5023344;28;19913;-49
2022/12/01 04:56:17;;;;;;;;;;;6.50;66.00;;;1.51;91.88;95786.34;4987037;28;19921;-50
2022/12/01 04:58:44;;;;;;;;;;;6.50;66.00;;;1.53;92.02;95792.19;5005492;28;19908;-56
2022/12/01 05:01:13;;;;;;;;;;;6.50;66.00;;;1.51;92.18;95787.13;5003930;28;19913;-55
2022/12/01 05:03:50;;;;;;;;;;;6.50;66.00;;;1.50;92.04;95795.22;4999420;28;19917;-46
2022/12/01 05:06:35;;;;;;;;;;;6.50;66.00;;;1.45;91.95;95785.31;5023285;28;19908;-52
2022/12/01 05:09:01;;;;;;;;;;;6.50;66.00;;;1.39;92.36;95781.69;4985646;28;19919;-49
2022/12/01 05:11:30;;;;;;;;;;;6.40;65.90;;;1.38;92.24;95785.31;5009036;28;20291;-49
2022/12/01 05:13:59;;;;;;;;;;;6.40;65.90;;;1.36;91.78;95791.78;5012406;28;19958;-46
2022/12/01 05:16:33;;;;;;;;;;;6.40;65.80;;;1.33;92.26;95784.31;4996184;28;19912;-47
2022/12/01 05:21:51;;;;;;;;;;;6.30;65.80;;;1.20;92.54;95789.56;5000110;28;20017;-47
2022/12/01 05:24:18;;;;;;;;;;;6.30;65.90;;;1.15;92.73;95796.19;5007591;28;20330;-48
2022/12/01 05:26:50;;;;;;;;;;;6.20;65.90;;;1.11;92.01;95804.69;4979280;28;20319;-47
2022/12/01 05:29:19;;;;;;;;;;;6.20;65.90;;;1.11;91.97;95792.38;5012694;28;19996;-47
2022/12/01 05:31:45;;;;;;;;;;;6.10;65.90;;;1.09;92.09;95793.56;5001945;28;20008;-46
2022/12/01 05:34:11;;;;;;;;;;;6.20;66.00;;;1.10;91.99;95795.19;4990717;28;19910;-46
2022/12/01 05:36:37;;;;;;;;;;;6.10;66.00;;;1.11;92.04;95799.44;4988018;28;19909;-47
2022/12/01 05:39:06;;;;;;;;;;;6.10;66.00;;;1.13;91.63;95797.44;4989433;28;19999;-47
2022/12/01 05:41:31;;;;;;;;;;;6.10;66.00;;;1.10;91.50;95796.00;4988615;28;19909;-47
2022/12/01 05:44:00;;;;;;;;;;;6.10;66.00;;;1.08;90.78;95790.13;5002640;28;20307;-49
2022/12/01 05:46:26;;;;;;;;;;;6.10;66.00;;;1.07;91.45;95795.59;4995441;28;19935;-50
2022/12/01 05:48:52;;;;;;;;;;;6.10;66.00;;;1.07;91.88;95796.41;5011840;28;19909;-49
2022/12/01 05:51:17;;;;;;;;;;;6.00;65.90;;;1.03;91.50;95794.38;5010122;28;19917;-46
2022/12/01 05:53:44;;;;;;;;;;;6.00;65.90;;;1.02;91.35;95795.38;4972399;28;20020;-47
2022/12/01 05:56:10;;;;;;;;;;;6.00;65.90;;;0.98;91.02;95796.78;4970241;28;19910;-54
2022/12/01 05:58:39;;;;;;;;;;;6.00;65.90;;;0.96;91.94;95794.34;4994045;28;19916;-47
2022/12/01 06:01:05;;;;;;;;;;;6.00;65.90;;;0.95;92.10;95798.00;5008233;28;19913;-50
2022/12/01 06:03:34;;;;;;;;;;;5.90;66.00;;;0.94;92.16;95796.38;4969271;28;20372;-47
2022/12/01 06:06:06;;;;;;;;;;;5.90;66.00;;;0.93;92.32;95797.38;4999493;28;19917;-46
2022/12/01 06:08:31;;;;;;;;;;;5.90;66.00;;;0.93;92.42;95794.75;5024824;28;20051;-47
2022/12/01 06:11:00;;;;;;;;;;;5.90;66.00;;;0.92;92.36;95799.19;4987692;28;20000;-47
2022/12/01 06:13:32;;;;;;;;;;;5.90;66.00;;;0.93;92.37;95797.38;5004747;28;20279;-51
2022/12/01 06:16:01;;;;;;;;;;;5.90;66.00;;;0.91;91.97;95794.16;4991425;28;20450;-51
2022/12/01 06:18:31;;;;;;;;;;;5.90;66.00;;;0.88;92.26;95805.84;5001219;28;19920;-51
2022/12/01 06:20:57;;;;;;;;;;;5.80;66.00;;;0.86;92.23;95804.44;4969121;28;19913;-48
2022/12/01 06:23:23;;;;;;;;;;;5.80;65.90;;;0.84;92.31;95799.38;5007490;28;20291;-52
2022/12/01 06:25:48;;;;;;;;;;;5.80;65.90;;;0.79;92.82;95808.84;5022675;28;19913;-51
2022/12/01 06:28:15;;;;;;;;;;;5.80;65.90;;;0.74;92.54;95809.44;5005059;28;20305;-46
2022/12/01 06:30:42;;;;;;;;;;;5.70;65.80;;;0.69;93.06;95810.03;5005686;28;19945;-51
2022/12/01 06:33:11;;;;;;;;;;;5.70;65.80;;;0.66;93.29;95814.88;5008705;28;19920;-47
2022/12/01 06:35:37;;;;;;;;;;;5.70;65.90;;;0.61;93.70;95815.44;5023873;28;20333;-50
2022/12/01 06:38:04;;;;;;;;;;;5.70;66.00;;;0.60;94.00;95815.66;5008031;28;19913;-47
2022/12/01 06:40:30;;;;;;;;;;;5.60;66.00;;;0.58;94.16;95813.22;4999040;28;19970;-48
2022/12/01 06:43:03;;;;;;;;;;;5.60;66.10;;;0.59;94.31;95814.81;5026362;28;19940;-47
2022/12/01 06:45:30;;;;;;;;;;;5.60;66.90;;;0.59;94.69;95814.00;4908851;28;22087;-47
2022/12/01 06:47:56;;;;;;;;;;;5.60;66.10;;;0.60;94.85;95824.31;4992747;28;19941;-47
2022/12/01 06:50:25;;;;;;;;;;;5.60;66.10;;;0.60;95.27;95821.69;5010085;28;19915;-48
2022/12/01 06:52:51;;;;;;;;;;;5.60;66.10;;;0.62;95.43;95831.97;5010113;28;20298;-50
2022/12/01 06:55:18;;;;;;;;;;;5.60;66.10;;;0.60;95.23;95826.94;5003611;28;20486;-52
2022/12/01 06:57:43;;;;;;;;;;;5.60;66.10;;;0.61;95.13;95828.56;4987750;28;19915;-48
2022/12/01 07:00:11;;;;;;;;;;;5.60;66.10;;;0.61;95.64;95830.38;5007625;28;19914;-47
2022/12/01 07:02:37;;;;;;;;;;;5.60;66.20;;;0.66;95.55;95833.22;5016294;28;19913;-47
2022/12/01 07:05:03;;;;;;;;;;;5.60;66.20;;;0.69;95.30;95832.84;4994586;28;20002;-49
2022/12/01 07:07:29;;;;;;;;;;;5.70;66.30;;;0.71;95.49;95830.81;5011217;28;20387;-49
2022/12/01 07:09:55;;;;;;;;;;;5.70;66.30;;;0.73;95.48;95841.91;4991727;28;19915;-53
2022/12/01 07:12:21;;;;;;;;;;;5.70;66.20;;;0.74;95.63;95837.47;5019512;28;19919;-53
2022/12/01 07:14:46;;;;;;;;;;;5.70;66.20;;;0.74;96.10;95843.53;5029798;28;19909;-47
2022/12/01 07:17:12;;;;;;;;;;;5.70;66.20;;;0.76;95.45;95836.28;5025322;28;19913;-47
2022/12/01 07:19:38;;;;;;;;;;;5.80;66.20;;;0.79;95.30;95841.13;5003512;28;19913;-51
2022/12/01 07:22:04;;;;;;;;;;;5.80;66.20;;;0.80;95.14;95837.50;5028453;28;19924;-55
2022/12/01 07:24:30;;;;;;;;;;;5.80;66.30;;;0.84;95.72;95841.31;5005225;28;19909;-47
2022/12/01 07:26:55;;;;;;;;;;;5.90;66.30;;;0.85;95.76;95840.34;5026432;28;19955;-49
2022/12/01 07:29:24;;;;;;;;;;;5.90;66.30;;;0.89;95.64;95841.56;5006592;28;19979;-47
2022/12/01 07:31:56;;;;;;;;;;;5.90;66.30;;;0.91;94.86;95846.63;5024990;28;20004;-49
2022/12/01 07:34:21;;;;;;;;;;;6.00;66.40;;;0.95;94.90;95847.03;5014009;28;20349;-47
2022/12/01 07:36:47;;;;;;;;;;;6.10;66.30;;;0.99;94.74;95843.00;4994387;28;19944;-48
2022/12/01 07:39:13;;;;;;;;;;;6.10;66.20;;;1.04;94.48;95849.28;5014531;28;19978;-49
2022/12/01 07:41:38;;;;;;;;;;;6.20;66.30;;;1.09;94.48;95853.91;5010580;28;20338;-48
2022/12/01 07:44:10;;;;;;;;;;;6.30;66.20;;;1.14;94.08;95851.50;4993282;28;20394;-52
2022/12/01 07:46:36;;;;;;;;;;;6.30;66.10;;;1.12;93.66;95856.13;5030209;28;19915;-51
2022/12/01 07:49:06;;;;;;;;;;;6.30;66.80;;;1.17;93.53;95855.56;5009128;28;19920;-47
2022/12/01 07:51:33;;;;;;;;;;;6.40;66.10;;;1.18;93.61;95857.16;4998295;28;20413;-49
2022/12/01 07:54:05;;;;;;;;;;;6.40;65.90;;;1.25;93.70;95853.53;4995654;28;20436;-51
2022/12/01 07:56:33;;;;;;;;;;;6.50;66.00;;;1.27;92.76;95848.91;5004279;28;19909;-51
2022/12/01 07:58:59;;;;;;;;;;;6.60;65.90;;;1.32;92.70;95850.94;4991607;28;20260;-47
2022/12/01 08:01:25;;;;;;;;;;;6.60;65.80;;;1.42;92.51;95861.06;5030724;28;19923;-51
2022/12/01 08:03:59;;;;;;;;;;;6.70;65.90;;;1.50;92.02;95856.41;5013978;28;19995;-52
2022/12/01 08:06:28;;;;;;;;;;;6.70;65.80;;;1.53;91.31;95863.88;5028954;28;20015;-50
2022/12/01 08:08:54;;;;;;;;;;;6.80;65.80;;;1.55;92.09;95859.25;4994254;28;19909;-47
2022/12/01 08:11:24;;;;;;;;;;;6.80;65.70;;;1.59;91.43;95857.00;5025205;28;19913;-47
2022/12/01 08:14:05;;;;;;;;;;;6.90;65.70;;;1.66;91.37;95864.91;5010796;28;19908;-50
2022/12/01 08:16:34;;;;;;;;;;;6.90;65.70;;;1.68;90.92;95857.63;5031871;28;19943;-50
2022/12/01 08:18:59;;;;;;;;;;;7.00;65.60;;;1.74;91.29;95859.44;5006667;28;19993;-47
2022/12/01 08:21:25;;;;;;;;;;;7.00;65.50;;;1.78;90.59;95858.81;5001165;28;20007;-52
2022/12/01 08:23:54;;;;;;;;;;;7.10;65.50;;;1.81;90.63;95853.16;5026874;28;19958;-47
2022/12/01 08:26:22;;;;;;;;;;;7.10;65.40;;;1.75;90.12;95853.97;5013861;28;19924;-51
2022/12/01 08:28:49;;;;;;;;;;;7.20;65.40;;;1.80;90.96;95853.38;5012032;28;20447;-56
2022/12/01 08:31:28;;;;;;;;;;;7.20;65.30;;;1.89;90.21;95852.19;4984425;28;19967;-50
2022/12/01 08:33:54;;;;;;;;;;;7.20;65.20;;;1.90;90.19;95855.59;5000964;28;19974;-52
2022/12/01 08:36:22;;;;;;;;;;;7.30;65.20;;;1.90;89.40;95855.59;5011774;28;19962;-57
2022/12/01 08:38:54;;;;;;;;;;;7.30;65.10;;;1.88;89.66;95857.63;5012371;28;20290;-49
2022/12/01 08:41:21;;;;;;;;;;;7.30;65.00;;;1.94;89.84;95851.56;5029238;28;19920;-47
2022/12/01 08:43:47;;;;;;;;;;;7.30;65.00;;;1.96;89.78;95846.91;4996432;28;19939;-47
2022/12/01 08:46:13;;;;;;;;;;;7.40;65.00;;;1.93;89.57;95848.13;4980234;28;20033;-50
2022/12/01 08:48:40;;;;;;;;;;;7.40;64.90;;;1.98;90.34;95853.59;4994836;28;19915;-50
2022/12/01 08:51:12;;;;;;;;;;;7.40;64.90;;;1.99;89.38;95852.56;5012774;28;19913;-47
2022/12/01 08:53:43;;;;;;;;;;;7.40;64.80;;;2.03;88.62;95866.09;5011775;28;19915;-50
2022/12/01 08:56:24;;;;;;;;;;;7.50;64.80;;;2.03;88.92;95856.38;5030283;28;19908;-49
2022/12/01 08:58:50;;;;;;;;;;;7.50;64.70;;;2.09;88.90;95858.19;4993186;28;19932;-53
2022/12/01 09:01:19;;;;;;;;;;;7.60;64.80;;;2.09;89.07;95860.81;4978270;28;19913;-50
2022/12/01 09:03:45;;;;;;;;;;;7.60;64.70;;;2.10;89.12;95859.03;4992699;28;19917;-48
2022/12/01 09:06:43;;;;;;;;;;;7.60;64.60;;;2.17;89.30;95859.03;5010314;28;19909;-54
2022/12/01 09:09:13;;;;;;;;;;;7.60;64.60;;;2.21;88.34;95861.03;5012548;28;19915;-48
2022/12/01 09:11:42;;;;;;;;;;;7.70;64.60;;;2.15;88.77;95864.47;5004209;28;20067;-49
2022/12/01 09:14:13;;;;;;;;;;;7.60;64.40;;;2.24;88.81;95870.31;5009893;28;19909;-52
2022/12/01 09:16:45;;;;;;;;;;;7.70;64.60;;;2.30;88.70;95862.41;5023513;28;19970;-48
2022/12/01 09:19:15;;;;;;;;;;;7.70;64.60;;;2.34;88.78;95868.06;4995028;28;20034;-48
2022/12/01 09:21:42;;;;;;;;;;;7.70;64.50;;;2.39;89.29;95875.34;5012629;28;19921;-52
2022/12/01 09:24:14;;;;;;;;;;;7.80;64.50;;;2.38;88.80;95873.72;4992031;28;19909;-49
2022/12/01 09:26:41;;;;;;;;;;;7.80;64.40;;;2.42;88.65;95878.38;5006034;28;19909;-52
2022/12/01 09:29:15;;;;;;;;;;;7.80;64.40;;;2.44;88.00;95881.59;5027337;28;20060;-47
2022/12/01 09:31:42;;;;;;;;;;;7.80;64.40;;;2.47;88.41;95878.56;5011922;28;19916;-51
2022/12/01 09:34:15;;;;;;;;;;;7.80;64.40;;;2.48;88.79;95882.00;4996022;28;19912;-49
2022/12/01 09:36:42;;;;;;;;;;;7.80;64.40;;;2.44;88.53;95876.34;5007912;28;19909;-53
2022/12/01 09:39:13;;;;;;;;;;;7.80;64.30;;;2.38;88.18;95878.97;5008721;28;19944;-50
2022/12/01 09:41:54;;;;;;;;;;;7.80;64.20;;;2.38;88.64;95877.16;5008036;28;19909;-48
2022/12/01 09:44:49;;;;;;;;;;;7.80;64.20;;;2.41;88.88;95874.13;5009300;28;20114;-50
2022/12/01 09:47:17;;;;;;;;;;;7.80;64.20;;;2.42;88.65;95885.47;5011226;28;19912;-48
2022/12/01 09:50:09;;;;;;;;;;;7.80;64.20;;;2.35;88.92;95876.75;5029594;28;19948;-50
2022/12/01 09:53:00;;;;;;;;;;;7.70;64.20;;;2.36;89.16;95878.41;5030087;28;19956;-52
2022/12/01 09:55:30;;;;;;;;;;;7.70;64.20;;;2.35;89.01;95874.97;5004417;28;19952;-47
2022/12/01 09:58:03;;;;;;;;;;;7.70;64.20;;;2.35;88.90;95874.97;5012311;28;20351;-49
2022/12/01 10:00:42;;;;;;;;;;;7.70;64.20;;;2.31;89.70;95873.75;5010790;28;20011;-50
2022/12/01 10:03:08;;;;;;;;;;;7.70;64.20;;;2.35;88.91;95871.50;4995395;28;19919;-48
2022/12/01 10:06:02;;;;;;;;;;;7.70;64.30;;;2.31;89.17;95866.66;5028353;28;20430;-53
2022/12/01 10:08:48;;;;;;;;;;;7.70;64.20;;;2.37;89.18;95866.84;5011905;28;19909;-47
2022/12/01 10:11:39;;;;;;;;;;;7.70;64.20;;;2.43;89.10;95866.03;5010271;28;19944;-47
2022/12/01 10:14:23;;;;;;;;;;;7.70;64.20;;;2.43;88.27;95861.56;4992898;28;19913;-48
2022/12/01 10:17:05;;;;;;;;;;;7.70;64.30;;;2.44;88.65;95857.13;4989900;28;19943;-52
2022/12/01 10:20:19;;;;;;;;;;;7.70;64.20;;;2.45;89.36;95853.50;5017986;28;19916;-47
2022/12/01 10:23:18;;;;;;;;;;;7.80;64.30;;;2.47;88.95;95844.38;5002853;28;19927;-50
2022/12/01 10:25:56;;;;;;;;;;;7.80;64.30;;;2.42;88.63;95843.41;5016664;28;20391;-48
2022/12/01 10:28:52;;;;;;;;;;;7.80;64.20;;;2.42;89.12;95838.94;5029262;28;20248;-48
2022/12/01 10:31:45;;;;;;;;;;;7.80;64.20;;;2.42;89.14;95841.56;5007333;28;19910;-51
2022/12/01 10:34:33;;;;;;;;;;;7.80;64.20;;;2.46;89.01;95837.50;5015157;28;19908;-50
2022/12/01 10:36:59;;;;;;;;;;;7.80;64.20;;;2.44;88.80;95833.47;5027146;28;19909;-47
2022/12/01 10:39:37;;;;;;;;;;;7.80;64.10;;;2.45;89.00;95835.91;4991487;28;19913;-51
2022/12/01 10:42:44;;;;;;;;;;;7.80;64.10;;;2.43;89.21;95827.41;5010857;28;19942;-47
2022/12/01 10:45:38;;;;;;;;;;;7.80;64.10;;;2.46;89.46;95829.63;5015134;28;19908;-47
2022/12/01 10:48:19;;;;;;;;;;;7.80;64.10;;;2.52;89.13;95834.03;5014542;28;20326;-52
2022/12/01 10:50:53;;;;;;;;;;;7.80;64.10;;;2.56;89.45;95831.81;5016038;28;19975;-47
2022/12/01 10:53:21;;;;;;;;;;;7.90;64.10;;;2.58;88.84;95826.34;5030924;28;19916;-48
2022/12/01 10:56:14;;;;;;;;;;;7.90;64.20;;;2.60;88.47;95819.88;5033009;28;19909;-48
2022/12/01 10:58:52;;;;;;;;;;;7.90;64.20;;;2.59;88.90;95825.31;5016554;28;19913;-56
2022/12/01 11:01:30;;;;;;;;;;;7.90;64.10;;;2.59;88.77;95826.13;4998150;28;20291;-48
2022/12/01 11:04:17;;;;;;;;;;;8.00;64.10;;;2.55;89.08;95820.47;5012443;28;19909;-50
2022/12/01 11:06:49;;;;;;;;;;;8.00;64.00;;;2.62;88.56;95822.28;4989964;28;19909;-50
2022/12/01 11:09:25;;;;;;;;;;;8.00;64.00;;;2.62;88.96;95819.66;5013260;28;19958;-47
2022/12/01 11:12:01;;;;;;;;;;;8.00;63.90;;;2.60;88.99;95819.88;5013847;28;19908;-50
2022/12/01 11:14:55;;;;;;;;;;;8.00;63.80;;;2.64;89.29;95818.44;5015194;28;19908;-51
2022/12/01 11:17:44;;;;;;;;;;;8.00;63.80;;;2.73;89.20;95814.56;5017972;28;19920;-48
2022/12/01 11:20:36;;;;;;;;;;;8.10;63.80;;;2.68;88.66;95811.72;5018972;28;20359;-48
2022/12/01 11:23:17;;;;;;;;;;;8.10;63.80;;;2.72;88.78;95812.91;4996858;28;19935;-50
2022/12/01 11:26:08;;;;;;;;;;;8.10;63.80;;;2.82;88.57;95820.38;5017859;28;20367;-48
2022/12/01 11:28:40;;;;;;;;;;;8.10;63.90;;;2.82;88.42;95814.28;5029025;28;19967;-53
2022/12/01 11:31:10;;;;;;;;;;;8.10;64.00;;;2.80;87.95;95813.72;5006993;28;19917;-47
2022/12/01 11:34:13;;;;;;;;;;;8.10;63.90;;;2.82;88.17;95812.50;5013163;28;20350;-47
2022/12/01 11:36:49;;;;;;;;;;;8.10;63.90;;;2.84;88.67;95809.63;5014774;28;19908;-47
2022/12/01 11:39:39;;;;;;;;;;;8.10;63.90;;;2.83;88.52;95808.84;4993345;28;19919;-50
2022/12/01 11:42:10;;;;;;;;;;;8.00;63.90;;;2.83;87.81;95813.28;5003752;28;20344;-52
2022/12/01 11:44:38;;;;;;;;;;;8.00;63.90;;;2.82;88.13;95815.13;5014759;28;19915;-48
2022/12/01 11:47:17;;;;;;;;;;;8.00;64.00;;;2.76;88.13;95808.88;5009346;28;19913;-52
2022/12/01 11:49:50;;;;;;;;;;;8.00;64.00;;;2.79;88.51;95815.53;4994437;28;19959;-48
2022/12/01 11:52:45;;;;;;;;;;;8.00;64.00;;;2.75;88.80;95807.22;5011118;28;19908;-47
2022/12/01 11:55:11;;;;;;;;;;;7.90;63.90;;;2.74;88.79;95812.72;4980463;28;20367;-52
2022/12/01 11:57:44;;;;;;;;;;;7.90;64.00;;;2.63;88.84;95811.53;5022354;28;19920;-55
2022/12/01 12:00:27;;;;;;;;;;;7.90;64.00;;;2.60;89.10;95811.16;5011391;28;20019;-49
2022/12/01 12:02:52;;;;;;;;;;;7.80;63.90;;;2.57;89.84;95814.19;5009336;28;19999;-52
2022/12/01 12:05:57;;;;;;;;;;;7.80;64.00;;;2.60;89.51;95806.72;5028817;28;20427;-47
2022/12/01 12:08:38;;;;;;;;;;;7.80;64.10;;;2.56;89.99;95805.50;4997347;28;19913;-57
2022/12/01 12:11:50;;;;;;;;;;;7.70;64.20;;;2.54;89.84;95804.94;5020978;28;19909;-57
2022/12/01 12:15:08;;;;;;;;;;;7.70;64.20;;;2.51;89.77;95807.97;5008376;28;19909;-53
2022/12/01 12:18:18;;;;;;;;;;;7.60;64.20;;;2.47;89.81;95809.38;5014243;28;19917;-57